South Channel Island, Victoria

4:35 PM AEDT on November 01, 2014 (GMT +1100)
Rosebud West | Change Station
CLOSE
Current Station
Personal Weather Station
Location: Rosebud West, VICTORIA
Elevation: 23 ft
Nearby Weather Stations

Elev 23 ft 38.37 °S, 144.88 °E | Updated 3 seconds ago

Mostly Cloudy
Mostly Cloudy
57.9 °F
Feels Like 57.9 °F
N
7.5
Wind Variable Wind from WSW
Gusts 13.2 mph

Today
High -- | Low -- °F
--% Chance of Precip.
Yesterday
High -- | Low -- °F
Precip. -- in
6:13 AM 7:55 PM
Waxing Gibbous, 63% visible
Pressure 29.80 in
Visibility 6.2 miles
Clouds Scattered Clouds 4700 ft
Mostly Cloudy 5400 ft
Mostly Cloudy 6500 ft
Dew Point 44 °F
Humidity 59%
Rainfall 0.36 in
Snow Depth Not available.
UV 0.0 out of 12
Pollen Not available.
Air Quality Not available.
Flu Activity Not available.
SPECI YMAV 010530Z AUTO 28019G29KT 9999 // SCT047 BKN054 BKN065 15/05 Q1009

More Conditions Fewer Conditions

Pressure 29.80 in
Visibility 6.2 miles
Clouds Scattered Clouds 4700 ft
Mostly Cloudy 5400 ft
Mostly Cloudy 6500 ft
Dew Point 44 °F
Humidity 59%
Rainfall 0.36 in
Snow Depth Not available.
UV 0.0 out of 12
Pollen Not available.
Air Quality Not available.
Flu Activity Not available.
SPECI YMAV 010530Z AUTO 28019G29KT 9999 // SCT047 BKN054 BKN065 15/05 Q1009

More Conditions Fewer Conditions

10-Day Weather Forecast

Almanac

Astronomy

Nov. 01, 2014 Rise Set
Actual Time
Civil Twilight
Nautical Twilight
Astronomical Twilight
Moon
Length of Visible Light
Length of Day
Tomorrow will be .
, % of the Moon is Illuminated

Today's Extremes

Country Highs Country Lows

Community

WunderPhotos

Upload Photos

1,766,859 photos uploaded!

WunderBlogs® & News

Nearby

Air Quality

  Air Quality AQ Index Pollutant
Not available.

Snow Depth

Station Depth Elevation

Earthquake Activity

City Distance Mag. Time & Date
Minimum magnitude displayed is 2.5.

Coastal Water Temperatures

Place Temperature

Nearby Weather Stations